Data for 01/07/2005

Time Sea-Level Adjusted Pressure Absolute Pressure Temperature Relative Humidity Dew Point   
(mb) (inHg) (mb) (inHg) (C) (F) (%) (C) (F)
00:05 1009 29.8 838 24.75 -10.3 13.4 89 -11.8 10.8
00:10 1009 29.8 838 24.75 -10.5 13.1 89 -12 10.4
00:15 1009 29.8 838 24.75 -10.9 12.5 89 -12.3 9.8
00:20 1009 29.8 838 24.75 -10.9 12.3 89 -12.4 9.7
00:25 1009 29.8 838 24.75 -10.6 12.8 89 -12.1 10.2
00:30 1009 29.8 838 24.75 -10.8 12.6 90 -12.1 10.2
00:35 1009 29.8 838 24.75 -10.6 13 91 -11.8 10.8
00:40 1009 29.8 838 24.75 -10.2 13.7 87 -12 10.5
00:45 1009 29.8 838 24.75 -9.9 14.2 88 -11.6 11.2
00:50 1009 29.8 838 24.75 -9.4 15.1 86 -11.2 11.8
00:55 1009 29.8 838 24.75 -9.4 15 86 -11.3 11.6
01:00 1009 29.8 838 24.75 -9.4 15.1 86 -11.3 11.7
01:05 1009 29.8 838 24.75 -9.4 15.1 85 -11.5 11.4
01:10 1009 29.8 838 24.75 -9.5 14.9 85 -11.6 11.1
01:15 1009 29.8 838 24.75 -9.8 14.3 86 -11.7 10.9
01:20 1009 29.8 838 24.75 -9.9 14.2 86 -11.8 10.8
01:25 1009 29.8 838 24.75 -10 14 87 -11.8 10.8
01:30 1009 29.8 838 24.75 -10.1 13.8 87 -11.9 10.6
01:35 1009 29.8 838 24.75 -10 13.9 87 -11.9 10.6
01:40 1009 29.8 838 24.75 -9.9 14.2 86 -11.9 10.6
01:45 1009 29.8 838 24.75 -9.6 14.6 85 -11.8 10.8
01:50 1009 29.8 838 24.75 -9.6 14.7 85 -11.7 10.9
01:55 1009 29.8 838 24.75 -9.4 15 84 -11.7 11
02:00 1009 29.8 838 24.75 -9.2 15.4 85 -11.4 11.5
02:05 1009 29.8 838 24.75 -9.1 15.6 84 -11.3 11.6
02:10 1009 29.8 838 24.75 -9 15.8 83 -11.3 11.6
02:15 1009 29.8 838 24.75 -8.9 16 83 -11.3 11.6
02:20 1009 29.8 838 24.75 -8.8 16.2 82 -11.3 11.6
02:25 1009 29.8 838 24.75 -8.6 16.6 81 -11.3 11.7
02:30 1009 29.8 838 24.75 -8.5 16.7 81 -11.3 11.7
02:35 1009 29.8 838 24.75 -8.6 16.5 81 -11.4 11.5
02:40 1009 29.8 838 24.75 -8.5 16.8 79 -11.5 11.3
02:45 1009 29.8 838 24.75 -8.3 17 78 -11.4 11.4
02:50 1009 29.8 838 24.75 -8.2 17.2 78 -11.5 11.4
02:55 1009 29.8 838 24.75 -8.1 17.3 78 -11.4 11.5
03:00 1009 29.8 838 24.75 -8.1 17.3 77 -11.5 11.3
03:05 1009 29.8 838 24.75 -8.1 17.5 76 -11.5 11.2
03:10 1009 29.8 838 24.75 -8 17.6 75 -11.6 11.1
03:15 1009 29.8 838 24.75 -8 17.6 75 -11.7 10.9
03:20 1009 29.8 838 24.75 -8 17.6 75 -11.7 10.9
03:25 1009 29.8 838 24.75 -7.9 17.8 74 -11.7 11
03:30 1009 29.8 838 24.75 -7.9 17.8 74 -11.7 10.9
03:35 1009 29.8 838 24.75 -7.9 17.9 74 -11.7 11
03:40 1009 29.8 838 24.75 -7.9 17.8 75 -11.5 11.3
03:45 1009 29.8 838 24.75 -8 17.6 75 -11.7 11
03:50 1009 29.8 839 24.78 -7.9 17.9 78 -11.1 12
03:55 1009 29.8 838 24.75 -8.3 17.1 81 -11 12.3
04:00 1009 29.8 839 24.78 -8.7 16.4 83 -11.1 12.1
04:05 1009 29.8 839 24.78 -9 15.8 84 -11.3 11.7
04:10 1009 29.8 839 24.78 -9.3 15.4 85 -11.3 11.6
04:15 1009 29.8 838 24.75 -9.5 14.8 86 -11.4 11.4
04:20 1009 29.8 838 24.75 -9.8 14.4 88 -11.4 11.6
04:25 1009 29.8 839 24.78 -9.8 14.3 89 -11.4 11.5
04:30 1009 29.8 839 24.78 -9.7 14.5 89 -11.2 11.8
04:35 1010 29.83 839 24.78 -9.7 14.6 90 -11 12.1
04:40 1010 29.83 839 24.78 -9.5 14.9 90 -10.9 12.4
04:45 1010 29.83 839 24.78 -9.6 14.7 90 -10.9 12.3
04:50 1010 29.83 839 24.78 -9.5 14.8 90 -10.8 12.5
04:55 1010 29.83 839 24.78 -9.5 15 90 -10.8 12.6
05:00 1010 29.83 839 24.78 -9.5 15 89 -10.9 12.3
05:05 1010 29.83 839 24.78 -9.7 14.6 87 -11.5 11.4
05:10 1010 29.83 839 24.78 -10.5 13.2 90 -11.8 10.7
05:15 1010 29.83 839 24.78 -10.5 13.1 90 -11.9 10.6
05:20 1010 29.83 839 24.78 -10.5 13.2 89 -11.9 10.6
05:25 1010 29.83 839 24.78 -10.2 13.7 88 -11.8 10.7
05:30 1010 29.83 839 24.78 -9.9 14.2 86 -11.8 10.8
05:35 1010 29.83 839 24.78 -9.7 14.5 85 -11.8 10.7
05:40 1010 29.83 839 24.78 -10 14 86 -11.9 10.5
05:45 1010 29.83 839 24.78 -10 14.1 86 -11.9 10.6
05:50 1010 29.83 839 24.78 -9.8 14.3 86 -11.8 10.7
05:55 1010 29.83 839 24.78 -10 14 86 -11.9 10.5
06:00 1010 29.83 839 24.78 -10.1 13.8 87 -11.9 10.5
06:05 1010 29.83 839 24.78 -10.1 13.8 87 -11.9 10.6
06:10 1010 29.83 839 24.78 -9.8 14.3 86 -11.8 10.8
06:15 1010 29.83 839 24.78 -9.6 14.7 87 -11.4 11.5
06:20 1010 29.83 839 24.78 -9.5 15 87 -11.3 11.6
06:25 1010 29.83 839 24.78 -9.4 15.1 87 -11.2 11.8
06:30 1010 29.83 840 24.81 -9.5 14.9 87 -11.3 11.6
06:35 1010 29.83 840 24.81 -9.6 14.8 86 -11.5 11.2
06:40 1010 29.83 840 24.81 -9.6 14.8 85 -11.6 11.1
06:45 1010 29.83 839 24.78 -9.7 14.5 85 -11.8 10.7
06:50 1010 29.83 839 24.78 -10.1 13.9 87 -11.9 10.6
06:55 1010 29.83 839 24.78 -10.2 13.6 87 -11.9 10.5
07:00 1010 29.83 839 24.78 -10.4 13.4 88 -12 10.4
07:05 1010 29.83 840 24.81 -10.5 13.2 87 -12.2 10.1
07:10 1010 29.83 840 24.81 -10.4 13.4 85 -12.4 9.6
07:15 1010 29.83 840 24.81 -10.3 13.4 85 -12.4 9.7
07:20 1010 29.83 840 24.81 -10.1 13.8 84 -12.3 9.8
07:25 1010 29.83 839 24.78 -10.4 13.4 86 -12.3 9.9
07:30 1010 29.83 839 24.78 -10.5 13.1 87 -12.3 9.8
07:35 1010 29.83 839 24.78 -10.6 13 87 -12.3 9.9
07:40 1010 29.83 839 24.78 -10.5 13.1 87 -12.3 9.9
07:45 1010 29.83 839 24.78 -10.4 13.3 86 -12.3 9.9
07:50 1010 29.83 839 24.78 -10.5 13.2 86 -12.4 9.6
07:55 1010 29.83 839 24.78 -10.5 13.1 86 -12.4 9.6
08:00 1010 29.83 839 24.78 -10.5 13.2 86 -12.4 9.6
08:05 1010 29.83 839 24.78 -10.5 13.1 86 -12.4 9.8
08:10 1010 29.83 839 24.78 -10.4 13.2 88 -12.1 10.2
08:15 1010 29.83 839 24.78 -10.2 13.7 87 -12 10.4
08:20 1010 29.83 839 24.78 -10 14.1 85 -12 10.3
08:25 1010 29.83 839 24.78 -9.8 14.3 85 -11.9 10.6
08:30 1010 29.83 839 24.78 -9.7 14.6 82 -12.2 10.1
08:35 1010 29.83 839 24.78 -9.6 14.6 83 -12 10.4
08:40 1010 29.83 839 24.78 -9.5 14.9 81 -12.2 10
08:45 1010 29.83 839 24.78 -9.5 15 81 -12.1 10.3
08:50 1010 29.83 839 24.78 -9.5 14.9 80 -12.3 9.8
08:55 1010 29.83 839 24.78 -9.8 14.4 79 -12.8 8.9
09:00 1010 29.83 839 24.78 -10.4 13.3 81 -13.1 8.5
09:05 1010 29.83 839 24.78 -10.8 12.6 84 -13.1 8.5
09:10 1010 29.83 839 24.78 -10.9 12.4 84 -13.1 8.5
09:15 1010 29.83 839 24.78 -10.8 12.6 84 -13 8.6
09:20 1010 29.83 839 24.78 -10.8 12.5 84 -13 8.5
09:25 1010 29.83 839 24.78 -10.6 12.9 84 -12.8 8.9
09:30 1010 29.83 839 24.78 -10.4 13.3 83 -12.7 9.1
09:35 1010 29.83 839 24.78 -10.5 13.2 83 -12.9 8.8
09:40 1010 29.83 839 24.78 -10.4 13.3 83 -12.8 9
09:45 1010 29.83 839 24.78 -10.1 13.9 77 -13.4 7.9
09:50 1010 29.83 839 24.78 -10 14 80 -12.9 8.8
09:55 1010 29.83 839 24.78 -10.2 13.7 76 -13.7 7.4
10:00 1010 29.83 839 24.78 -9.6 14.7 72 -13.7 7.3
10:05 1010 29.83 839 24.78 -9.3 15.3 71 -13.6 7.6
10:10 1010 29.83 839 24.78 -9.2 15.5 76 -12.6 9.4
10:15 1010 29.83 839 24.78 -10 14.1 82 -12.4 9.6
10:20 1010 29.83 839 24.78 -10.6 13 85 -12.7 9.1
10:25 1010 29.83 839 24.78 -11 12.3 86 -12.8 8.9
10:30 - 0 - 0 0 32 0 -273.2 -459.7
10:35 - 0 - 0 0 32 0 -273.2 -459.7
10:40 - 0 - 0 0 32 0 -273.2 -459.7
10:45 - 0 - 0 0 32 0 -273.2 -459.7
10:50 - 0 - 0 0 32 0 -273.2 -459.7
10:55 - 0 - 0 0 32 0 -273.2 -459.7
11:00 1009 29.8 839 24.78 -9.2 15.4 75 -13 8.7
11:05 1009 29.8 839 24.78 -9.7 14.5 80 -12.6 9.3
11:10 1009 29.8 838 24.75 -9.6 14.7 76 -13.1 8.4
11:15 1009 29.8 838 24.75 -9.2 15.4 69 -13.9 7
11:20 1009 29.8 838 24.75 -8.7 16.4 66 -13.9 6.9
11:25 1009 29.8 838 24.75 -8.4 17 66 -13.7 7.4
11:30 1008 29.77 838 24.75 -8.5 16.8 66 -13.6 7.4
11:35 1008 29.77 837 24.72 -8.5 16.7 67 -13.7 7.4
11:40 1008 29.77 837 24.72 -8.6 16.6 66 -13.8 7.2
11:45 1008 29.77 837 24.72 -8.5 16.6 66 -13.8 7.2
11:50 1008 29.77 837 24.72 -8.3 17 65 -13.8 7.1
11:55 1008 29.77 837 24.72 -8 17.7 63 -13.8 7.1
12:00 1008 29.77 837 24.72 -7.6 18.3 63 -13.5 7.6
12:05 1008 29.77 837 24.72 -7.2 19.1 61 -13.4 7.8
12:10 1008 29.77 837 24.72 -7.3 18.8 62 -13.4 7.8
12:15 1007 29.74 837 24.72 -7.6 18.4 63 -13.5 7.8
12:20 1007 29.74 837 24.72 -7.7 18.1 64 -13.3 8
12:25 1007 29.74 836 24.69 -7.8 17.9 65 -13.4 7.9
12:30 1007 29.74 836 24.69 -7.8 18.1 68 -12.8 9
12:35 1007 29.74 836 24.69 -8 17.5 75 -11.8 10.8
12:40 1007 29.74 836 24.69 -8.9 16 76 -12.4 9.7
12:45 1007 29.74 836 24.69 -8.6 16.6 76 -12 10.4
12:50 1007 29.74 836 24.69 -8.5 16.7 75 -12.1 10.2
12:55 1007 29.74 836 24.69 -9.1 15.7 79 -12.1 10.2
13:00 1007 29.74 836 24.69 -9.2 15.4 78 -12.3 9.8
13:05 1007 29.74 836 24.69 -9.4 15.1 79 -12.3 9.8
13:10 1007 29.74 836 24.69 -9.5 14.9 79 -12.5 9.5
13:15 1007 29.74 836 24.69 -9.5 14.9 81 -12.2 10
13:20 1006 29.71 836 24.69 -10.2 13.7 82 -12.7 9.2
13:25 1006 29.71 836 24.69 -9.6 14.8 80 -12.4 9.7
13:30 1006 29.71 835 24.66 -9.4 15.1 80 -12.3 9.9
13:35 1006 29.71 835 24.66 -9.3 15.3 79 -12.4 9.7
13:40 1006 29.71 835 24.66 -9.4 15.1 80 -12.1 10.1
13:45 1006 29.71 835 24.66 -8.7 16.4 76 -12.2 10.1
13:50 1006 29.71 835 24.66 -7 19.3 67 -12.1 10.1
13:55 1006 29.71 835 24.66 -6.4 20.5 66 -11.7 10.9
14:00 1006 29.71 835 24.66 -6.7 19.9 67 -11.8 10.7
14:05 1006 29.71 835 24.66 -7.1 19.2 70 -11.6 11.1
14:10 1006 29.71 835 24.66 -8.3 17 75 -12 10.4
14:15 1006 29.71 835 24.66 -9 15.8 76 -12.4 9.7
14:20 1006 29.71 835 24.66 -9 15.9 76 -12.4 9.6
14:25 1006 29.71 835 24.66 -9.2 15.5 78 -12.4 9.6
14:30 1005 29.68 835 24.66 -8.4 17 73 -12.3 9.8
14:35 1005 29.68 834 24.63 -7.9 17.7 69 -12.7 9.2
14:40 1005 29.68 834 24.63 -8.4 16.8 71 -12.8 9
14:45 1005 29.68 834 24.63 -8 17.6 69 -12.7 9.2
14:50 1005 29.68 834 24.63 -8.1 17.4 71 -12.4 9.6
14:55 1005 29.68 834 24.63 -8.2 17.2 72 -12.4 9.7
15:00 1005 29.68 834 24.63 -8.2 17.2 71 -12.6 9.2
15:05 1005 29.68 834 24.63 -8.4 16.9 71 -12.8 9
15:10 1004 29.65 834 24.63 -8.7 16.4 72 -12.9 8.8
15:15 1004 29.65 834 24.63 -8.6 16.4 69 -13.4 7.9
15:20 1004 29.65 834 24.63 -8.7 16.3 71 -13 8.5
15:25 1004 29.65 833 24.6 -8.9 16.1 66 -14.1 6.6
15:30 1004 29.65 833 24.6 -8.9 15.9 67 -14 6.8
15:35 1004 29.65 833 24.6 -9.3 15.3 75 -12.9 8.7
15:40 1004 29.65 833 24.6 -9.3 15.3 72 -13.5 7.7
15:45 1004 29.65 833 24.6 -9.5 15 78 -12.7 9.2
15:50 1004 29.65 833 24.6 -10.2 13.6 75 -13.8 7.2
15:55 1004 29.65 833 24.6 -10.1 13.8 71 -14.5 5.9
16:00 1004 29.65 833 24.6 -10.2 13.7 71 -14.5 5.9
16:05 1004 29.65 833 24.6 -10.3 13.5 71 -14.6 5.7
16:10 1004 29.65 833 24.6 -10.1 13.9 70 -14.5 5.9
16:15 1004 29.65 833 24.6 -10 14.1 74 -13.8 7.1
16:20 1004 29.65 833 24.6 -10.3 13.4 77 -13.7 7.4
16:25 1004 29.65 833 24.6 -10.3 13.5 71 -14.5 5.8
16:30 1004 29.65 833 24.6 -10.1 13.8 74 -13.9 6.9
16:35 1004 29.65 833 24.6 -10.3 13.4 76 -13.7 7.3
16:40 1004 29.65 833 24.6 -10.5 13.2 78 -13.6 7.5
16:45 1004 29.65 833 24.6 -10.9 12.3 83 -13.3 8.1
16:50 1004 29.65 833 24.6 -11.5 11.3 84 -13.6 7.5
16:55 1004 29.65 833 24.6 -11.6 11 85 -13.7 7.4
17:00 1004 29.65 833 24.6 -11.7 11 84 -13.9 7
17:05 1003 29.62 833 24.6 -11.6 11.1 83 -14 6.8
17:10 1003 29.62 833 24.6 -11.6 11.2 80 -14.3 6.2
17:15 1003 29.62 832 24.57 -11.1 12.1 75 -14.6 5.7
17:20 1003 29.62 832 24.57 -10.7 12.8 72 -14.7 5.5
17:25 1003 29.62 832 24.57 -10.6 12.9 75 -14.3 6.3
17:30 1003 29.62 832 24.57 -10.8 12.6 79 -13.8 7.2
17:35 1003 29.62 832 24.57 -11.6 11.2 85 -13.7 7.4
17:40 1003 29.62 832 24.57 -12 10.4 86 -13.9 7
17:45 1003 29.62 832 24.57 -11.8 10.8 79 -14.7 5.5
17:50 1003 29.62 832 24.57 -11.1 12.1 74 -14.8 5.3
17:55 1002 29.59 832 24.57 -10.9 12.5 72 -15 5.1
18:00 1002 29.59 832 24.57 -11 12.3 73 -15 5
18:05 1003 29.62 832 24.57 -11 12.3 72 -15.1 4.9
18:10 1003 29.62 832 24.57 -11.1 12 72 -15.1 4.8
18:15 1002 29.59 832 24.57 -11.2 11.9 73 -15.1 4.8
18:20 1002 29.59 831 24.54 -11.2 11.9 73 -15.2 4.7
18:25 1002 29.59 831 24.54 -11.1 12 72 -15.2 4.7
18:30 1002 29.59 831 24.54 -11.1 12 72 -15.2 4.7
18:35 1002 29.59 832 24.57 -11.1 11.9 72 -15.2 4.6
18:40 1002 29.59 832 24.57 -11.1 12.1 72 -15.2 4.7
18:45 1002 29.59 832 24.57 -10.8 12.6 71 -15.1 4.8
18:50 1002 29.59 832 24.57 -10.7 12.7 71 -15 4.9
18:55 1002 29.59 832 24.57 -10.8 12.7 78 -13.9 7
19:00 1002 29.59 831 24.54 -11.6 11.1 84 -13.8 7.2
19:05 1002 29.59 832 24.57 -12.3 9.8 88 -14 6.8
19:10 1002 29.59 831 24.54 -12.6 9.3 89 -14.1 6.6
19:15 1002 29.59 831 24.54 -12.7 9.2 89 -14.1 6.6
19:20 1002 29.59 831 24.54 -12.7 9.2 88 -14.3 6.3
19:25 1002 29.59 831 24.54 -12.2 10 78 -15.3 4.4
19:30 1001 29.56 831 24.54 -11.5 11.4 73 -15.4 4.3
19:35 1001 29.56 830 24.51 -11.3 11.6 71 -15.5 4.1
19:40 1001 29.56 830 24.51 -11.2 11.8 71 -15.6 4
19:45 1001 29.56 830 24.51 -11.1 12.1 70 -15.5 4.2
19:50 1001 29.56 830 24.51 -10.9 12.4 69 -15.5 4.1
19:55 1001 29.56 830 24.51 -11 12.3 70 -15.4 4.2
20:00 1001 29.56 830 24.51 -11 12.2 69 -15.6 4
20:05 1001 29.56 830 24.51 -10.8 12.5 69 -15.4 4.3
20:10 1001 29.56 830 24.51 -10.7 12.7 69 -15.4 4.3
20:15 1001 29.56 830 24.51 -10.7 12.8 69 -15.4 4.4
20:20 1001 29.56 830 24.51 -10.6 13 69 -15.3 4.5
20:25 1000 29.53 830 24.51 -10.5 13.1 68 -15.3 4.5
20:30 1001 29.56 830 24.51 -10.3 13.4 68 -15.1 4.7
20:35 1000 29.53 830 24.51 -10 14.1 66 -15.1 4.8
20:40 1001 29.56 830 24.51 -10.1 13.8 75 -13.8 7.2
20:45 1000 29.53 830 24.51 -11 12.1 78 -14.1 6.6
20:50 1001 29.56 830 24.51 -10.9 12.4 73 -14.7 5.5
20:55 1001 29.56 830 24.51 -10.6 12.8 73 -14.7 5.6
21:00 1000 29.53 830 24.51 -10.6 12.8 74 -14.4 6.1
21:05 1000 29.53 830 24.51 -10.9 12.4 78 -14 6.7
21:10 1001 29.56 830 24.51 -11.9 10.5 84 -14.1 6.6
21:15 1000 29.53 829 24.48 -12.6 9.3 89 -14.1 6.6
21:20 1000 29.53 829 24.48 -12.7 9.2 89 -14.1 6.6
21:25 1000 29.53 829 24.48 -12.5 9.5 89 -14 6.8
21:30 1000 29.53 829 24.48 -12.4 9.7 88 -14 6.7
21:35 1000 29.53 829 24.48 -12.1 10.2 83 -14.5 5.9
21:40 1000 29.53 829 24.48 -11.9 10.7 80 -14.7 5.6
21:45 1000 29.53 829 24.48 -11.4 11.6 76 -14.7 5.5
21:50 1000 29.53 829 24.48 -10.8 12.6 74 -14.5 5.9
21:55 1000 29.53 829 24.48 -10.3 13.4 73 -14.3 6.2
22:00 1000 29.53 829 24.48 -10.6 13 76 -14 6.9
22:05 1000 29.53 829 24.48 -11.3 11.7 83 -13.6 7.5
22:10 999 29.5 829 24.48 -11.9 10.7 85 -14 6.9
22:15 999 29.5 829 24.48 -12.7 9.1 87 -14.4 6.1
22:20 999 29.5 829 24.48 -13.1 8.5 87 -14.8 5.4
22:25 999 29.5 828 24.45 -13.3 8.1 89 -14.8 5.4
22:30 999 29.5 829 24.48 -13.3 8 88 -14.9 5.2
22:35 999 29.5 829 24.48 -13.3 8.1 88 -14.9 5.3
22:40 999 29.5 828 24.45 -13.6 7.5 90 -14.9 5.2
22:45 1000 29.53 829 24.48 -13.5 7.7 90 -14.8 5.4
22:50 1000 29.53 829 24.48 -13.4 7.9 89 -14.8 5.3
22:55 1000 29.53 829 24.48 -13.4 7.8 90 -14.8 5.4
23:00 1000 29.53 829 24.48 -13.5 7.7 90 -14.9 5.2
23:05 1000 29.53 829 24.48 -14.1 6.7 91 -15.2 4.7
23:10 1000 29.53 829 24.48 -14.2 6.4 92 -15.3 4.5
23:15 1000 29.53 829 24.48 -14.1 6.6 92 -15.2 4.6
23:20 1000 29.53 830 24.51 -14.2 6.4 91 -15.4 4.3
23:25 1000 29.53 829 24.48 -14.6 5.7 93 -15.5 4
23:30 1000 29.53 829 24.48 -14.6 5.8 93 -15.5 4.1
23:35 1000 29.53 829 24.48 -14.5 5.8 92 -15.6 4
23:40 1000 29.53 829 24.48 -14.6 5.7 92 -15.6 3.9
23:45 1000 29.53 829 24.48 -14.7 5.5 92 -15.7 3.8
23:50 1000 29.53 829 24.48 -14.4 6 91 -15.6 4
23:55 1000 29.53 829 24.48 -14.2 6.5 90 -15.4 4.2
24:00 1000 29.53 829 24.48 -14 6.8 90 -15.3 4.4